Gerardo Tobar Lopez Airport


Codes: SKBU/BUN
Name: Gerardo Tobar Lopez Airport
City: Buenaventura
Country: Colombia
Elevation: 48 ft.

Photos at Gerardo Tobar Lopez Airport


   Photos courtesy of SpottingLog. You can add your own sightings and photos by signing up for a free trial today.



No photos found.

Weather at Gerardo Tobar Lopez Airport


Time (UTC)DescriptionTempratureWindCloud coverageVisibilityPressureHumidity
19-Apr-2024 06:00Heavy Intensity Rain25°C4 mph, S100%8429m1012hPa99%
19-Apr-2024 09:00Light Rain24°C0 mph, SE100%10000m1011hPa98%
19-Apr-2024 12:00Light Rain24°C0 mph, NE100%10000m1013hPa97%
19-Apr-2024 15:00Overcast Clouds26°C2 mph, NE100%10000m1014hPa91%
19-Apr-2024 18:00Moderate Rain26°C4 mph, N100%10000m1013hPa92%
19-Apr-2024 21:00Light Rain25°C2 mph, SE100%10000m1010hPa96%
20-Apr-2024 00:00Overcast Clouds24°C2 mph, S100%10000m1011hPa95%
20-Apr-2024 03:00Light Rain24°C2 mph, NE100%10000m1013hPa96%
20-Apr-2024 06:00Overcast Clouds24°C2 mph, SW100%10000m1012hPa97%
20-Apr-2024 09:00Light Rain24°C2 mph, SE100%10000m1012hPa97%
20-Apr-2024 12:00Overcast Clouds24°C2 mph, E100%10000m1013hPa95%
20-Apr-2024 15:00Overcast Clouds26°C2 mph, N100%10000m1014hPa90%
20-Apr-2024 18:00Light Rain28°C0 mph, S100%10000m1012hPa77%
20-Apr-2024 21:00Light Rain28°C2 mph, W100%10000m1009hPa79%
21-Apr-2024 00:00Light Rain24°C2 mph, S77%10000m1012hPa95%
21-Apr-2024 03:00Broken Clouds24°C2 mph, SE75%10000m1014hPa95%
21-Apr-2024 06:00Broken Clouds23°C2 mph, E84%10000m1012hPa95%
21-Apr-2024 09:00Overcast Clouds23°C2 mph, SE93%10000m1011hPa94%
21-Apr-2024 12:00Overcast Clouds24°C2 mph, SE92%10000m1013hPa92%
21-Apr-2024 15:00Light Rain29°C2 mph, W92%8039m1014hPa76%
21-Apr-2024 18:00Light Rain29°C4 mph, SW81%10000m1012hPa75%
21-Apr-2024 21:00Light Rain27°C4 mph, SW100%9519m1010hPa89%
22-Apr-2024 00:00Light Rain24°C2 mph, SE100%10000m1012hPa95%
22-Apr-2024 03:00Overcast Clouds24°C2 mph, SE100%10000m1013hPa94%
22-Apr-2024 06:00Light Rain24°C2 mph, SE100%10000m1012hPa94%
22-Apr-2024 09:00Light Rain23°C2 mph, E97%10000m1011hPa94%
22-Apr-2024 12:00Light Rain23°C2 mph, E98%10000m1013hPa96%
22-Apr-2024 15:00Light Rain24°C2 mph, NE100%10000m1014hPa95%
22-Apr-2024 18:00Light Rain25°C2 mph, NE100%10000m1012hPa89%
22-Apr-2024 21:00Light Rain28°C2 mph, NE100%10000m1009hPa77%
23-Apr-2024 00:00Overcast Clouds25°C2 mph, NE100%10000m1010hPa90%
23-Apr-2024 03:00Overcast Clouds24°C2 mph, NE100%10000m1012hPa93%
23-Apr-2024 06:00Overcast Clouds23°C2 mph, E100%10000m1011hPa92%
23-Apr-2024 09:00Overcast Clouds23°C2 mph, E100%10000m1010hPa90%
23-Apr-2024 12:00Overcast Clouds24°C2 mph, E92%10000m1011hPa86%
23-Apr-2024 15:00Overcast Clouds30°C2 mph, NW95%10000m1012hPa68%
23-Apr-2024 18:00Overcast Clouds31°C4 mph, W97%10000m1010hPa63%
23-Apr-2024 21:00Light Rain28°C4 mph, W100%10000m1008hPa79%
24-Apr-2024 00:00Light Rain25°C2 mph, SW99%10000m1010hPa91%
24-Apr-2024 03:00Overcast Clouds25°C2 mph, SE100%10000m1012hPa93%